BIA weather

Bastia-Poretta Airport
Bastia/Poretta, Corsica, France

Public forecast

Using degrees Celsius for public forecast. Weather courtesy of forecast.io.

Current aviation weather report (METAR) for Bastia-Poretta Airport

Retrieved 2019/12/08 02:30 UTC (9 minutes ago):

LFKB 080230Z AUTO 22005KT 9999 BKN029 09/07 Q1020 TEMPO BKN013

Aviation forecast (TAF) for Bastia-Poretta Airport

Retrieved 2019-12-08 03:43 UTC (0 seconds ago):

TAF LFKB 080200Z 0803/0903 22004KT 9999 BKN020 TX17/0813Z TN09/0804Z PROB30 TEMPO 0803/0806 BKN013